Urb San Salvador, Puerto Rico
Current Conditions -  °F | °C
As of 3:49 PM on Sunday 23 Nov 2014 (Local Time) from TJIG Reporting Station
Scattered Clouds Scattered Clouds  
Wind Chill: 84°   Ceiling: Unl
Heat Index: 88°   Visibility: 10mi
Dew Point: 70°   Wind: 14mph
Humidity: 62%   Direction: 120°ESE
Pressure: 30"   Gusts: NA
Location:  18.4259°N, 66.4717°W
Report Text: TJIG 231949Z 12012KT 10SM SCT035 29/21 A3000 RMK RY09 IN USE ATIS J
Loading
Personal Weather Stations






























Interactive Weather Map New forecast layout! Learn more

10-Day Weather Forecast

Advertisements
Track Severe Weather on mobile